Time;durP1;ratioP1;P1;durP2;ratioP2;P2;SDS_P1;SDS_P2;PMS_P1;PMS_P2;Temp;Humidity;BMP_temperature;BMP_pressure;BME280_temperature;BME280_humidity;BME280_pressure;Samples;Min_cycle;Max_cycle;Signal;HPM_P1;HPM_P2
2023/12/06 00:01:16;;;;;;;;;;;7.50;99.20;;;;;;5033966;28;19905;-92
2023/12/06 00:03:42;;;;;;;;;;;7.50;99.20;;;;;;5034286;28;19909;-93
2023/12/06 00:06:08;;;;;;;;;;;7.50;99.10;;;;;;5038370;28;19912;-91
2023/12/06 00:08:34;;;;;;;;;;;7.50;99.10;;;;;;5020307;28;19948;-92
2023/12/06 00:10:59;;;;;;;;;;;7.50;99.10;;;;;;5038426;28;19959;-92
2023/12/06 00:13:25;;;;;;;;;;;7.40;98.90;;;;;;5038656;28;19905;-92
2023/12/06 00:15:51;;;;;;;;;;;7.40;99.00;;;;;;5020646;28;20349;-91
2023/12/06 00:18:16;;;;;;;;;;;7.40;99.00;;;;;;5038737;28;20104;-92
2023/12/06 00:20:42;;;;;;;;;;;7.40;99.00;;;;;;5038176;28;19916;-92
2023/12/06 00:23:08;;;;;;;;;;;7.40;99.00;;;;;;5038140;28;19916;-92
2023/12/06 00:25:33;;;;;;;;;;;7.30;99.00;;;;;;5038777;28;19919;-92
2023/12/06 00:27:59;;;;;;;;;;;7.30;99.00;;;;;;5038531;28;19909;-90
2023/12/06 00:30:24;;;;;;;;;;;7.30;99.00;;;;;;5037597;28;20280;-89
2023/12/06 00:32:50;;;;;;;;;;;7.30;99.00;;;;;;5037324;28;19935;-89
2023/12/06 00:35:16;;;;;;;;;;;7.30;98.90;;;;;;5037918;28;19950;-89
2023/12/06 00:37:41;;;;;;;;;;;7.30;99.10;;;;;;5037540;28;19940;-89
2023/12/06 00:40:07;;;;;;;;;;;7.30;98.80;;;;;;5038002;28;19951;-90
2023/12/06 00:42:33;;;;;;;;;;;7.30;98.80;;;;;;5019614;28;19917;-89
2023/12/06 00:44:58;;;;;;;;;;;7.30;98.80;;;;;;5037673;28;20042;-91
2023/12/06 00:47:24;;;;;;;;;;;7.30;98.80;;;;;;5020373;28;19912;-90
2023/12/06 00:49:49;;;;;;;;;;;7.30;98.80;;;;;;5037422;28;19909;-90
2023/12/06 00:52:15;;;;;;;;;;;7.30;98.70;;;;;;5037265;28;19909;-90
2023/12/06 00:54:40;;;;;;;;;;;7.30;98.70;;;;;;5037591;28;19905;-89
2023/12/06 00:57:06;;;;;;;;;;;7.30;98.70;;;;;;5019339;28;19916;-90
2023/12/06 00:59:31;;;;;;;;;;;7.30;98.70;;;;;;5019290;28;19932;-88
2023/12/06 01:01:57;;;;;;;;;;;7.30;98.70;;;;;;5021771;28;19916;-89
2023/12/06 01:04:22;;;;;;;;;;;7.30;98.70;;;;;;5037087;28;19999;-92
2023/12/06 01:06:48;;;;;;;;;;;7.20;98.70;;;;;;5037983;28;19905;-89
2023/12/06 01:09:14;;;;;;;;;;;7.20;98.70;;;;;;5036999;28;19916;-90
2023/12/06 01:11:39;;;;;;;;;;;7.20;98.80;;;;;;5037113;28;19924;-90
2023/12/06 01:14:05;;;;;;;;;;;7.20;98.70;;;;;;5037390;28;19909;-92
2023/12/06 01:16:31;;;;;;;;;;;7.20;98.80;;;;;;5037132;28;19916;-91
2023/12/06 01:18:56;;;;;;;;;;;7.20;98.80;;;;;;5036076;28;20004;-89
2023/12/06 01:21:22;;;;;;;;;;;7.20;98.80;;;;;;5038009;28;19919;-92
2023/12/06 01:23:47;;;;;;;;;;;7.20;98.80;;;;;;5020373;28;20007;-91
2023/12/06 01:28:46;;;;;;;;;;;7.20;98.70;;;;;;4741546;23;19954;-83
2023/12/06 01:31:15;;;;;;;;;;;7.20;98.80;;;;;;5056592;28;20256;-83
2023/12/06 01:33:40;;;;;;;;;;;7.20;98.80;;;;;;5075505;28;19919;-83
2023/12/06 01:36:06;;;;;;;;;;;7.20;98.80;;;;;;5075655;28;19999;-82
2023/12/06 01:38:32;;;;;;;;;;;7.20;98.80;;;;;;5056920;28;20290;-84
2023/12/06 01:40:57;;;;;;;;;;;7.20;98.80;;;;;;5074752;28;19908;-83
2023/12/06 01:43:23;;;;;;;;;;;7.20;98.70;;;;;;5056907;28;19912;-84
2023/12/06 01:45:48;;;;;;;;;;;7.20;98.80;;;;;;5075444;28;20363;-83
2023/12/06 01:48:14;;;;;;;;;;;7.20;98.80;;;;;;5057688;28;19908;-83
2023/12/06 01:50:41;;;;;;;;;;;7.20;98.80;;;;;;5075451;28;20054;-82
2023/12/06 01:53:06;;;;;;;;;;;7.10;98.60;;;;;;5074537;28;19912;-83
2023/12/06 01:55:32;;;;;;;;;;;7.10;98.80;;;;;;5075095;28;19961;-84
2023/12/06 01:57:58;;;;;;;;;;;7.10;98.80;;;;;;5056846;28;20516;-84
2023/12/06 02:00:24;;;;;;;;;;;7.20;98.70;;;;;;5057586;28;20001;-84
2023/12/06 02:02:50;;;;;;;;;;;7.10;98.70;;;;;;5057168;28;20271;-84
2023/12/06 02:05:16;;;;;;;;;;;7.10;98.80;;;;;;5075065;28;19984;-83
2023/12/06 02:07:42;;;;;;;;;;;7.10;98.80;;;;;;5074932;28;19916;-83
2023/12/06 02:10:09;;;;;;;;;;;7.10;98.80;;;;;;5074554;28;20379;-84
2023/12/06 02:12:35;;;;;;;;;;;7.10;98.80;;;;;;5057104;28;19951;-83
2023/12/06 02:15:01;;;;;;;;;;;7.10;98.90;;;;;;5056779;28;19952;-84
2023/12/06 02:17:27;;;;;;;;;;;7.10;98.90;;;;;;5074516;28;19939;-84
2023/12/06 02:19:53;;;;;;;;;;;7.10;98.90;;;;;;5068952;28;20390;-84
2023/12/06 02:22:20;;;;;;;;;;;7.20;98.90;;;;;;5075726;28;19995;-91
2023/12/06 02:24:47;;;;;;;;;;;7.20;98.80;;;;;;5077085;28;19905;-90
2023/12/06 02:27:12;;;;;;;;;;;7.20;98.80;;;;;;5076826;28;19959;-92
2023/12/06 02:29:38;;;;;;;;;;;7.20;98.80;;;;;;5059002;28;20360;-93
2023/12/06 02:32:04;;;;;;;;;;;7.10;98.70;;;;;;5077458;28;20360;-92
2023/12/06 02:34:30;;;;;;;;;;;7.20;98.80;;;;;;5076832;28;20017;-91
2023/12/06 02:36:57;;;;;;;;;;;7.20;98.80;;;;;;5076866;28;19908;-91
2023/12/06 02:39:26;;;;;;;;;;;7.20;98.80;;;;;;5076371;28;19919;-91
2023/12/06 02:41:52;;;;;;;;;;;7.20;98.80;;;;;;5076806;28;19904;-92
2023/12/06 02:44:17;;;;;;;;;;;7.10;98.80;;;;;;5059830;28;19904;-94
2023/12/06 02:46:43;;;;;;;;;;;7.20;98.90;;;;;;5078663;28;20417;-93
2023/12/06 02:49:09;;;;;;;;;;;7.20;98.90;;;;;;5077055;28;19904;-93
2023/12/06 02:51:35;;;;;;;;;;;7.20;98.80;;;;;;5060064;28;19950;-95
2023/12/06 02:54:00;;;;;;;;;;;7.20;98.90;;;;;;5060428;28;19931;-95
2023/12/06 02:56:26;;;;;;;;;;;7.20;98.90;;;;;;5060115;28;19912;-96
2023/12/06 02:58:52;;;;;;;;;;;7.20;98.80;;;;;;5078442;28;19911;-93
2023/12/06 03:01:17;;;;;;;;;;;7.20;98.80;;;;;;5057207;28;20478;-82
2023/12/06 03:03:43;;;;;;;;;;;7.20;98.80;;;;;;5056021;28;20370;-83
2023/12/06 03:06:08;;;;;;;;;;;7.20;98.80;;;;;;5055659;28;19908;-83
2023/12/06 03:08:34;;;;;;;;;;;7.20;98.70;;;;;;5073352;28;19908;-84
2023/12/06 03:10:59;;;;;;;;;;;7.20;98.80;;;;;;5055755;28;19990;-84
2023/12/06 03:13:25;;;;;;;;;;;7.20;98.80;;;;;;5074190;28;19916;-84
2023/12/06 03:15:50;;;;;;;;;;;7.20;98.80;;;;;;5073878;28;20001;-84
2023/12/06 03:18:16;;;;;;;;;;;7.20;98.90;;;;;;5081565;28;19896;-89
2023/12/06 03:20:42;;;;;;;;;;;7.20;98.90;;;;;;5076801;28;20256;-90
2023/12/06 03:23:11;;;;;;;;;;;7.20;98.80;;;;;;5086291;28;19913;-93
2023/12/06 03:25:37;;;;;;;;;;;7.10;98.80;;;;;;5095794;28;19908;-91
2023/12/06 03:28:03;;;;;;;;;;;7.10;98.90;;;;;;5094635;28;20191;-91
2023/12/06 03:30:29;;;;;;;;;;;7.10;98.80;;;;;;5087832;28;19944;-90
2023/12/06 03:32:54;;;;;;;;;;;7.10;98.80;;;;;;5076359;28;20363;-91
2023/12/06 03:35:20;;;;;;;;;;;7.10;98.80;;;;;;5076467;28;19909;-91
2023/12/06 03:37:45;;;;;;;;;;;7.10;98.90;;;;;;5076951;28;19908;-93
2023/12/06 03:40:11;;;;;;;;;;;7.10;98.90;;;;;;5077531;28;20411;-92
2023/12/06 03:42:37;;;;;;;;;;;7.00;98.90;;;;;;5058336;28;19904;-92
2023/12/06 03:45:03;;;;;;;;;;;7.00;98.90;;;;;;5079191;28;19911;-92
2023/12/06 03:47:29;;;;;;;;;;;7.00;99.00;;;;;;5087302;28;20007;-91
2023/12/06 03:49:54;;;;;;;;;;;7.00;99.00;;;;;;5075590;28;19908;-89
2023/12/06 03:52:21;;;;;;;;;;;7.00;99.00;;;;;;5075074;28;20356;-91
2023/12/06 03:54:47;;;;;;;;;;;7.00;99.10;;;;;;5057081;28;19904;-92
2023/12/06 03:57:13;;;;;;;;;;;7.00;99.10;;;;;;5075049;28;19915;-92
2023/12/06 03:59:38;;;;;;;;;;;7.00;99.10;;;;;;5074891;28;19905;-92
2023/12/06 04:02:04;;;;;;;;;;;7.00;99.20;;;;;;5075044;28;19909;-92
2023/12/06 04:04:29;;;;;;;;;;;7.00;99.10;;;;;;5075163;28;20253;-91
2023/12/06 04:06:55;;;;;;;;;;;7.10;99.20;;;;;;5057258;28;19905;-91
2023/12/06 04:09:20;;;;;;;;;;;7.10;99.10;;;;;;5074959;28;19999;-91
2023/12/06 04:11:46;;;;;;;;;;;7.10;99.00;;;;;;5057240;28;19908;-91
2023/12/06 04:14:12;;;;;;;;;;;7.10;99.10;;;;;;5074697;28;19904;-89
2023/12/06 04:16:37;;;;;;;;;;;7.10;99.10;;;;;;5074330;28;19912;-89
2023/12/06 04:19:03;;;;;;;;;;;7.00;99.10;;;;;;5074713;28;19904;-90
2023/12/06 04:21:28;;;;;;;;;;;7.00;99.10;;;;;;5074973;28;19915;-91
2023/12/06 04:23:54;;;;;;;;;;;7.00;99.20;;;;;;5075367;28;19905;-91
2023/12/06 04:26:20;;;;;;;;;;;7.00;99.20;;;;;;5058314;28;20028;-91
2023/12/06 04:28:46;;;;;;;;;;;7.00;99.30;;;;;;5075211;28;19928;-91
2023/12/06 04:31:11;;;;;;;;;;;7.00;99.20;;;;;;5056956;28;19905;-91
2023/12/06 04:33:37;;;;;;;;;;;7.00;99.20;;;;;;5075000;28;19991;-91
2023/12/06 04:36:03;;;;;;;;;;;7.00;99.40;;;;;;5074599;28;20356;-91
2023/12/06 04:38:28;;;;;;;;;;;7.00;99.30;;;;;;5076068;28;19904;-91
2023/12/06 04:40:54;;;;;;;;;;;7.00;99.30;;;;;;5075505;28;19908;-91
2023/12/06 04:43:19;;;;;;;;;;;7.00;99.30;;;;;;5058306;28;19966;-89
2023/12/06 04:45:45;;;;;;;;;;;7.00;99.30;;;;;;5075600;28;19915;-90
2023/12/06 04:48:11;;;;;;;;;;;7.00;99.30;;;;;;5056423;28;20316;-90
2023/12/06 04:50:37;;;;;;;;;;;7.00;99.30;;;;;;5075895;28;20298;-89
2023/12/06 04:53:02;;;;;;;;;;;7.00;99.30;;;;;;5078024;28;19991;-90
2023/12/06 04:55:28;;;;;;;;;;;7.10;99.20;;;;;;5078579;28;19904;-89
2023/12/06 04:57:53;;;;;;;;;;;7.00;99.20;;;;;;5077209;28;20007;-90
2023/12/06 05:00:21;;;;;;;;;;;7.10;99.30;;;;;;5060470;28;19912;-89
2023/12/06 05:02:47;;;;;;;;;;;7.10;99.20;;;;;;5061041;28;19904;-90
2023/12/06 05:05:12;;;;;;;;;;;7.10;99.20;;;;;;5078273;28;19962;-92
2023/12/06 05:07:38;;;;;;;;;;;7.10;99.30;;;;;;5078773;28;19904;-93
2023/12/06 05:10:04;;;;;;;;;;;7.10;99.20;;;;;;5061253;28;19904;-93
2023/12/06 05:12:29;;;;;;;;;;;7.00;99.20;;;;;;5079527;28;19930;-92
2023/12/06 05:14:55;;;;;;;;;;;7.00;99.20;;;;;;5060282;28;20283;-92
2023/12/06 05:17:21;;;;;;;;;;;7.00;99.20;;;;;;5077626;28;19920;-92
2023/12/06 05:19:47;;;;;;;;;;;7.00;99.30;;;;;;5077230;28;19912;-91
2023/12/06 05:22:12;;;;;;;;;;;7.00;99.30;;;;;;5077675;28;20394;-88
2023/12/06 05:24:38;;;;;;;;;;;6.90;99.30;;;;;;5076716;28;20391;-87
2023/12/06 05:27:04;;;;;;;;;;;6.90;99.40;;;;;;5077075;28;20299;-88
2023/12/06 05:29:32;;;;;;;;;;;6.90;99.40;;;;;;5057627;28;20368;-88
2023/12/06 05:31:57;;;;;;;;;;;6.90;99.40;;;;;;5058225;28;19911;-82
2023/12/06 05:34:23;;;;;;;;;;;6.90;99.40;;;;;;5074271;28;19999;-82
2023/12/06 05:36:49;;;;;;;;;;;6.90;99.30;;;;;;5043853;28;20284;-82
2023/12/06 05:39:25;;;;;;;;;;;6.90;99.30;;;;;;5074366;28;19908;-84
2023/12/06 05:41:51;;;;;;;;;;;6.90;99.30;;;;;;5057524;28;19912;-84
2023/12/06 05:44:17;;;;;;;;;;;6.90;99.40;;;;;;5075609;28;20400;-84
2023/12/06 05:46:42;;;;;;;;;;;6.90;99.40;;;;;;5075297;28;19955;-84
2023/12/06 05:49:08;;;;;;;;;;;6.90;99.30;;;;;;5075651;28;19904;-83
2023/12/06 05:51:34;;;;;;;;;;;6.90;99.30;;;;;;5074714;28;19908;-84
2023/12/06 05:53:59;;;;;;;;;;;6.90;99.30;;;;;;5073841;28;20029;-85
2023/12/06 05:56:25;;;;;;;;;;;6.90;99.40;;;;;;5068019;28;19908;-84
2023/12/06 05:58:51;;;;;;;;;;;6.90;99.30;;;;;;5075256;28;20283;-84
2023/12/06 06:04:11;;;;;;;;;;;6.90;99.20;;;;;;5071411;28;19931;-85
2023/12/06 06:06:37;;;;;;;;;;;6.90;99.20;;;;;;5072290;28;20305;-86
2023/12/06 06:09:03;;;;;;;;;;;6.90;99.20;;;;;;5056714;28;19908;-85
2023/12/06 06:11:28;;;;;;;;;;;6.90;99.20;;;;;;5073904;28;19908;-84
2023/12/06 06:13:57;;;;;;;;;;;6.90;99.20;;;;;;5074907;28;19915;-84
2023/12/06 06:16:22;;;;;;;;;;;6.80;99.20;;;;;;5075385;28;19912;-84
2023/12/06 06:18:48;;;;;;;;;;;6.90;99.20;;;;;;5054068;28;19912;-83
2023/12/06 06:21:13;;;;;;;;;;;6.80;99.30;;;;;;5070940;28;19987;-81
2023/12/06 06:23:40;;;;;;;;;;;6.90;99.30;;;;;;5054120;28;20003;-82
2023/12/06 06:26:07;;;;;;;;;;;6.90;99.20;;;;;;5072655;28;19908;-84
2023/12/06 06:28:32;;;;;;;;;;;6.90;99.20;;;;;;5073212;28;19923;-83
2023/12/06 06:30:58;;;;;;;;;;;6.90;99.10;;;;;;5074145;28;19908;-83
2023/12/06 06:33:24;;;;;;;;;;;6.90;99.10;;;;;;5074584;28;20272;-86
2023/12/06 06:35:49;;;;;;;;;;;6.90;99.10;;;;;;5074977;28;19999;-86
2023/12/06 06:38:15;;;;;;;;;;;6.90;99.10;;;;;;5074354;28;19908;-86
2023/12/06 06:40:41;;;;;;;;;;;6.80;99.00;;;;;;5075647;28;19931;-86
2023/12/06 06:43:06;;;;;;;;;;;6.80;99.00;;;;;;5072709;28;20279;-87
2023/12/06 06:45:32;;;;;;;;;;;6.80;99.10;;;;;;5073776;28;19909;-87
2023/12/06 06:47:57;;;;;;;;;;;6.80;99.10;;;;;;5057436;28;19904;-86
2023/12/06 06:50:23;;;;;;;;;;;6.80;99.00;;;;;;5057269;28;19954;-87
2023/12/06 06:52:49;;;;;;;;;;;6.70;99.00;;;;;;5075119;28;19904;-87
2023/12/06 06:55:14;;;;;;;;;;;6.70;99.10;;;;;;5057431;28;19995;-86
2023/12/06 06:57:40;;;;;;;;;;;6.70;99.10;;;;;;5074867;28;19915;-87
2023/12/06 07:00:13;;;;;;;;;;;6.70;99.00;;;;;;5073586;28;20034;-84
2023/12/06 07:02:38;;;;;;;;;;;6.70;99.00;;;;;;5054697;28;19909;-83
2023/12/06 07:05:06;;;;;;;;;;;6.70;99.30;;;;;;5054459;28;19916;-86
2023/12/06 07:07:31;;;;;;;;;;;6.70;99.20;;;;;;5055904;28;20086;-90
2023/12/06 07:10:04;;;;;;;;;;;6.90;99.90;;;;;;5056265;28;19912;-91
2023/12/06 07:12:29;;;;;;;;;;;6.90;99.40;;;;;;5074073;28;19990;-86
2023/12/06 07:14:55;;;;;;;;;;;6.90;99.10;;;;;;5055640;28;19955;-87
2023/12/06 07:17:20;;;;;;;;;;;6.90;98.70;;;;;;5074371;28;19919;-88
2023/12/06 07:19:46;;;;;;;;;;;6.90;98.70;;;;;;5073705;28;20265;-84
2023/12/06 07:22:11;;;;;;;;;;;6.80;98.70;;;;;;5073922;28;19909;-85
2023/12/06 07:24:37;;;;;;;;;;;6.80;98.80;;;;;;5073858;28;19904;-85
2023/12/06 07:27:03;;;;;;;;;;;6.80;98.70;;;;;;5073958;28;19961;-87
2023/12/06 07:29:29;;;;;;;;;;;6.80;98.60;;;;;;5073341;28;20003;-86
2023/12/06 07:31:54;;;;;;;;;;;6.80;98.80;;;;;;5063946;28;19951;-86
2023/12/06 07:34:20;;;;;;;;;;;6.80;98.50;;;;;;5052446;28;19909;-86
2023/12/06 07:36:45;;;;;;;;;;;6.80;98.60;;;;;;5071024;28;19912;-86
2023/12/06 07:39:11;;;;;;;;;;;6.80;98.60;;;;;;5072034;28;19913;-84
2023/12/06 07:41:36;;;;;;;;;;;6.80;98.50;;;;;;5045277;28;19920;-84
2023/12/06 07:44:02;;;;;;;;;;;6.90;98.50;;;;;;5039158;28;19916;-84
2023/12/06 07:46:27;;;;;;;;;;;6.80;98.40;;;;;;5055953;28;19916;-84
2023/12/06 07:48:53;;;;;;;;;;;6.80;98.30;;;;;;5054799;28;19916;-86
2023/12/06 07:51:19;;;;;;;;;;;6.80;98.40;;;;;;5075360;28;19919;-85
2023/12/06 07:53:44;;;;;;;;;;;6.80;98.50;;;;;;5058065;28;20003;-86
2023/12/06 07:56:11;;;;;;;;;;;6.70;98.40;;;;;;5057011;28;19954;-85
2023/12/06 07:58:37;;;;;;;;;;;6.80;98.40;;;;;;5036173;28;19908;-86
2023/12/06 08:01:03;;;;;;;;;;;6.80;98.40;;;;;;5069626;28;19974;-87
2023/12/06 08:03:31;;;;;;;;;;;6.70;98.30;;;;;;5054032;28;19908;-88
2023/12/06 08:05:59;;;;;;;;;;;6.70;98.40;;;;;;5073356;28;19904;-88
2023/12/06 08:08:28;;;;;;;;;;;6.70;98.30;;;;;;5072814;28;19908;-88
2023/12/06 08:10:54;;;;;;;;;;;6.80;98.30;;;;;;5073523;28;20415;-87
2023/12/06 08:13:20;;;;;;;;;;;6.80;98.40;;;;;;5073731;28;19951;-88
2023/12/06 08:15:45;;;;;;;;;;;6.80;98.40;;;;;;5073500;28;20284;-84
2023/12/06 08:18:11;;;;;;;;;;;6.80;98.30;;;;;;5073168;28;19995;-85
2023/12/06 08:20:36;;;;;;;;;;;6.80;98.20;;;;;;5054802;28;19915;-86
2023/12/06 08:23:03;;;;;;;;;;;6.80;98.30;;;;;;5072699;28;19910;-87
2023/12/06 08:25:29;;;;;;;;;;;6.80;98.30;;;;;;5073861;28;20268;-88
2023/12/06 08:27:54;;;;;;;;;;;6.80;98.30;;;;;;5077040;28;19911;-88
2023/12/06 08:30:29;;;;;;;;;;;6.90;98.30;;;;;;5055908;28;20276;-89
2023/12/06 08:35:52;;;;;;;;;;;6.90;98.30;;;;;;5070226;28;19909;-85
2023/12/06 08:38:41;;;;;;;;;;;6.90;98.20;;;;;;5077702;28;19940;-86
2023/12/06 08:41:17;;;;;;;;;;;6.90;98.30;;;;;;5058899;28;19947;-87
2023/12/06 08:43:43;;;;;;;;;;;6.90;98.30;;;;;;5059027;28;20338;-89
2023/12/06 08:46:09;;;;;;;;;;;7.00;98.30;;;;;;5077038;28;20311;-89
2023/12/06 08:48:35;;;;;;;;;;;7.00;98.40;;;;;;5076940;28;19939;-89
2023/12/06 08:51:02;;;;;;;;;;;7.10;98.50;;;;;;5076880;28;19915;-89
2023/12/06 08:53:28;;;;;;;;;;;7.10;98.40;;;;;;5076565;28;20418;-89
2023/12/06 08:55:54;;;;;;;;;;;7.10;98.30;;;;;;5076472;28;19999;-89
2023/12/06 08:58:20;;;;;;;;;;;7.20;98.30;;;;;;5077160;28;19912;-89
2023/12/06 09:00:46;;;;;;;;;;;7.20;98.30;;;;;;5076580;28;19927;-88
2023/12/06 09:03:11;;;;;;;;;;;7.20;98.30;;;;;;5072784;28;19967;-89
2023/12/06 09:05:38;;;;;;;;;;;7.20;98.20;;;;;;5076221;28;19905;-89
2023/12/06 09:08:04;;;;;;;;;;;7.20;98.20;;;;;;5076817;28;19904;-89
2023/12/06 09:10:30;;;;;;;;;;;7.30;98.20;;;;;;5073629;28;19904;-88
2023/12/06 09:12:55;;;;;;;;;;;7.30;98.10;;;;;;5058233;28;20263;-88
2023/12/06 09:15:21;;;;;;;;;;;7.30;98.00;;;;;;5076499;28;19912;-89
2023/12/06 09:17:47;;;;;;;;;;;7.30;98.00;;;;;;5076112;28;19918;-88
2023/12/06 09:20:12;;;;;;;;;;;7.30;98.00;;;;;;5076117;28;19998;-89
2023/12/06 09:22:38;;;;;;;;;;;7.30;97.90;;;;;;5076318;28;20318;-88
2023/12/06 09:25:04;;;;;;;;;;;7.30;98.10;;;;;;5076553;28;20355;-88
2023/12/06 09:27:33;;;;;;;;;;;7.40;98.20;;;;;;5057915;28;19912;-89
2023/12/06 09:29:59;;;;;;;;;;;7.40;98.30;;;;;;5058506;28;20007;-89
2023/12/06 09:32:25;;;;;;;;;;;7.50;98.10;;;;;;5076442;28;20320;-88
2023/12/06 09:34:50;;;;;;;;;;;7.60;98.00;;;;;;5076946;28;19908;-89
2023/12/06 09:37:16;;;;;;;;;;;7.70;98.10;;;;;;5047367;28;19973;-85
2023/12/06 09:39:42;;;;;;;;;;;7.70;98.10;;;;;;5038680;28;20050;-90
2023/12/06 09:42:10;;;;;;;;;;;7.80;97.90;;;;;;5038419;28;19918;-87
2023/12/06 09:44:41;;;;;;;;;;;7.90;97.80;;;;;;5062689;28;19908;-90
2023/12/06 09:47:06;;;;;;;;;;;7.90;97.90;;;;;;5070225;28;20383;-91
2023/12/06 09:49:32;;;;;;;;;;;8.00;97.70;;;;;;5071118;28;19947;-90
2023/12/06 09:52:17;;;;;;;;;;;8.10;97.70;;;;;;5052711;28;20003;-90
2023/12/06 09:54:43;;;;;;;;;;;8.10;97.70;;;;;;5056371;28;19921;-89
2023/12/06 09:57:10;;;;;;;;;;;8.20;97.70;;;;;;5075680;28;19908;-90
2023/12/06 09:59:35;;;;;;;;;;;8.30;97.60;;;;;;5075576;28;19905;-90
2023/12/06 10:02:01;;;;;;;;;;;8.40;97.30;;;;;;5075461;28;20364;-90
2023/12/06 10:04:27;;;;;;;;;;;8.40;97.30;;;;;;5075404;28;19927;-90
2023/12/06 10:06:54;;;;;;;;;;;8.40;97.30;;;;;;5057230;28;19909;-96
2023/12/06 10:09:20;;;;;;;;;;;8.50;97.40;;;;;;5057248;28;19962;-90
2023/12/06 10:11:47;;;;;;;;;;;8.50;97.00;;;;;;5068191;28;19923;-89
2023/12/06 10:14:22;;;;;;;;;;;8.50;96.80;;;;;;5072597;28;19908;-87
2023/12/06 10:16:48;;;;;;;;;;;8.50;96.70;;;;;;5061899;28;19912;-87
2023/12/06 10:19:22;;;;;;;;;;;8.50;96.60;;;;;;5075053;28;19978;-87
2023/12/06 10:21:47;;;;;;;;;;;8.50;96.80;;;;;;5037889;28;20003;-87
2023/12/06 10:24:13;;;;;;;;;;;8.60;96.80;;;;;;5071190;28;19948;-88
2023/12/06 10:26:39;;;;;;;;;;;8.60;96.80;;;;;;5075983;28;19912;-90
2023/12/06 10:29:05;;;;;;;;;;;8.70;96.90;;;;;;5075100;28;19965;-86
2023/12/06 10:31:37;;;;;;;;;;;8.80;96.60;;;;;;5075567;28;19912;-86
2023/12/06 10:34:03;;;;;;;;;;;8.80;96.70;;;;;;5055976;28;19912;-85
2023/12/06 10:36:29;;;;;;;;;;;8.90;96.70;;;;;;5074837;28;20276;-86
2023/12/06 10:38:54;;;;;;;;;;;9.00;96.50;;;;;;5072145;28;19989;-86
2023/12/06 10:41:20;;;;;;;;;;;9.10;96.00;;;;;;5073843;28;20364;-87
2023/12/06 10:43:47;;;;;;;;;;;9.20;96.20;;;;;;5051396;28;19904;-87
2023/12/06 10:46:14;;;;;;;;;;;9.20;96.00;;;;;;5051978;28;19908;-86
2023/12/06 10:48:40;;;;;;;;;;;9.30;96.20;;;;;;5072007;28;19909;-87
2023/12/06 10:51:05;;;;;;;;;;;9.40;95.60;;;;;;5073194;28;19919;-86
2023/12/06 10:53:32;;;;;;;;;;;9.40;95.50;;;;;;5073286;28;19908;-87
2023/12/06 10:55:59;;;;;;;;;;;9.40;95.60;;;;;;5066457;28;20277;-87
2023/12/06 10:58:25;;;;;;;;;;;9.50;95.80;;;;;;5046153;28;20316;-87
2023/12/06 11:00:50;;;;;;;;;;;9.70;96.00;;;;;;5074673;28;19954;-85
2023/12/06 11:03:16;;;;;;;;;;;9.80;95.50;;;;;;5060520;28;19904;-87
2023/12/06 11:05:44;;;;;;;;;;;10.00;95.40;;;;;;5055753;28;19908;-87
2023/12/06 11:08:22;;;;;;;;;;;10.10;95.40;;;;;;5063220;28;20310;-86
2023/12/06 11:11:06;;;;;;;;;;;10.20;95.30;;;;;;5055641;28;19914;-86
2023/12/06 11:13:38;;;;;;;;;;;10.30;94.00;;;;;;5056099;28;19944;-87
2023/12/06 11:16:13;;;;;;;;;;;10.20;94.10;;;;;;5056017;28;19904;-87
2023/12/06 11:18:50;;;;;;;;;;;10.20;94.20;;;;;;5073903;28;19919;-86
2023/12/06 11:21:18;;;;;;;;;;;10.20;94.50;;;;;;5072819;28;20011;-86
2023/12/06 11:23:45;;;;;;;;;;;10.30;94.70;;;;;;5074346;28;19954;-85
2023/12/06 11:26:11;;;;;;;;;;;10.40;94.60;;;;;;5073626;28;19950;-85
2023/12/06 11:28:39;;;;;;;;;;;10.40;94.50;;;;;;5061527;28;19913;-85
2023/12/06 11:31:05;;;;;;;;;;;10.50;94.40;;;;;;5057185;28;20314;-85
2023/12/06 11:33:30;;;;;;;;;;;10.60;94.50;;;;;;5053966;28;19909;-85
2023/12/06 11:35:56;;;;;;;;;;;10.70;94.10;;;;;;5048729;28;19919;-85
2023/12/06 11:38:31;;;;;;;;;;;10.80;94.00;;;;;;5066617;28;19908;-86
2023/12/06 11:40:58;;;;;;;;;;;11.00;94.20;;;;;;5054352;28;20357;-86
2023/12/06 11:43:31;;;;;;;;;;;11.10;93.50;;;;;;5073293;28;19931;-85
2023/12/06 11:46:04;;;;;;;;;;;11.10;93.40;;;;;;5055435;28;19908;-86
2023/12/06 11:48:30;;;;;;;;;;;11.20;93.60;;;;;;5072805;28;19904;-87
2023/12/06 11:50:58;;;;;;;;;;;11.30;93.80;;;;;;5055139;28;20261;-85
2023/12/06 11:53:26;;;;;;;;;;;11.50;93.90;;;;;;5047742;28;19905;-85
2023/12/06 11:55:53;;;;;;;;;;;11.60;93.80;;;;;;5072224;28;19912;-88
2023/12/06 11:58:19;;;;;;;;;;;11.70;93.40;;;;;;5073235;28;19908;-88
2023/12/06 12:00:46;;;;;;;;;;;11.70;92.40;;;;;;5056408;28;19904;-87
2023/12/06 12:03:11;;;;;;;;;;;11.80;92.60;;;;;;5071715;28;19913;-88
2023/12/06 12:05:37;;;;;;;;;;;11.90;92.60;;;;;;5066220;28;19904;-88
2023/12/06 12:08:03;;;;;;;;;;;12.00;92.50;;;;;;5053421;28;20600;-90
2023/12/06 12:10:29;;;;;;;;;;;12.10;92.40;;;;;;5063412;28;19909;-90
2023/12/06 12:12:55;;;;;;;;;;;12.30;92.40;;;;;;5066504;28;19904;-91
2023/12/06 12:15:27;;;;;;;;;;;12.30;92.30;;;;;;5061350;28;19993;-90
2023/12/06 12:17:53;;;;;;;;;;;12.40;92.30;;;;;;5079232;28;20425;-90
2023/12/06 12:20:19;;;;;;;;;;;12.50;92.20;;;;;;5079012;28;19904;-90
2023/12/06 12:22:45;;;;;;;;;;;12.50;92.00;;;;;;5060264;28;20008;-90
2023/12/06 12:25:10;;;;;;;;;;;12.50;91.40;;;;;;5078211;28;19951;-90
2023/12/06 12:27:36;;;;;;;;;;;12.50;91.60;;;;;;5078234;28;20319;-90
2023/12/06 12:30:03;;;;;;;;;;;12.50;91.70;;;;;;5059597;28;19927;-90
2023/12/06 12:32:31;;;;;;;;;;;12.50;91.70;;;;;;5064918;28;19919;-88
2023/12/06 12:35:05;;;;;;;;;;;12.50;91.60;;;;;;5052486;28;19909;-88
2023/12/06 12:37:31;;;;;;;;;;;12.50;91.60;;;;;;5055458;28;20283;-88
2023/12/06 12:39:56;;;;;;;;;;;12.50;91.80;;;;;;5071453;28;19904;-88
2023/12/06 12:42:22;;;;;;;;;;;12.50;91.70;;;;;;5058629;28;19908;-88
2023/12/06 12:44:47;;;;;;;;;;;12.50;91.70;;;;;;5076793;28;19908;-88
2023/12/06 12:47:13;;;;;;;;;;;12.40;91.70;;;;;;5076852;28;19904;-86
2023/12/06 12:49:41;;;;;;;;;;;12.40;91.80;;;;;;5075895;28;19908;-87
2023/12/06 12:52:08;;;;;;;;;;;12.40;91.90;;;;;;5058487;28;19932;-87
2023/12/06 12:54:36;;;;;;;;;;;12.40;92.20;;;;;;5076278;28;19912;-86
2023/12/06 12:57:02;;;;;;;;;;;12.50;91.90;;;;;;5071739;28;19994;-86
2023/12/06 12:59:32;;;;;;;;;;;12.50;91.40;;;;;;5051163;28;20380;-85
2023/12/06 13:01:57;;;;;;;;;;;12.50;90.90;;;;;;5075675;28;19916;-84
2023/12/06 13:04:23;;;;;;;;;;;12.60;90.10;;;;;;5074178;28;19904;-88
2023/12/06 13:06:49;;;;;;;;;;;12.50;90.10;;;;;;5076417;28;19908;-88
2023/12/06 13:09:15;;;;;;;;;;;12.40;90.20;;;;;;5076165;28;20009;-88
2023/12/06 13:11:41;;;;;;;;;;;12.40;90.50;;;;;;5065656;28;20253;-88
2023/12/06 13:14:06;;;;;;;;;;;12.30;90.40;;;;;;5072689;28;20007;-88
2023/12/06 13:16:32;;;;;;;;;;;12.40;90.60;;;;;;5067002;28;19919;-87
2023/12/06 13:18:58;;;;;;;;;;;12.30;90.70;;;;;;5044177;28;19999;-87
2023/12/06 13:21:24;;;;;;;;;;;12.40;91.00;;;;;;5054758;28;19909;-88
2023/12/06 13:23:49;;;;;;;;;;;12.40;90.80;;;;;;5060154;28;19954;-88
2023/12/06 13:26:15;;;;;;;;;;;12.30;90.80;;;;;;5060581;28;19915;-87
2023/12/06 13:28:42;;;;;;;;;;;12.30;90.80;;;;;;5063396;28;20363;-88
2023/12/06 13:31:08;;;;;;;;;;;12.30;90.90;;;;;;5057736;28;19909;-88
2023/12/06 13:33:33;;;;;;;;;;;12.30;91.00;;;;;;5054648;28;20258;-88
2023/12/06 13:35:59;;;;;;;;;;;12.30;91.10;;;;;;5045562;28;19976;-88
2023/12/06 13:38:24;;;;;;;;;;;12.30;91.20;;;;;;5070184;28;20402;-87
2023/12/06 13:40:50;;;;;;;;;;;12.30;91.20;;;;;;5040034;28;20339;-87
2023/12/06 13:43:15;;;;;;;;;;;12.20;91.30;;;;;;5071931;28;20234;-87
2023/12/06 13:45:41;;;;;;;;;;;12.20;91.40;;;;;;5073644;28;19934;-88
2023/12/06 13:48:06;;;;;;;;;;;12.20;91.50;;;;;;5071828;28;19911;-87
2023/12/06 13:50:33;;;;;;;;;;;12.20;91.60;;;;;;5054480;28;20002;-87
2023/12/06 13:52:58;;;;;;;;;;;12.20;91.60;;;;;;5070188;28;19911;-88
2023/12/06 13:55:24;;;;;;;;;;;12.20;91.60;;;;;;5066675;28;19905;-88
2023/12/06 13:57:49;;;;;;;;;;;12.10;91.50;;;;;;5057494;28;19955;-90
2023/12/06 14:00:16;;;;;;;;;;;12.10;91.60;;;;;;5071000;28;20326;-90
2023/12/06 14:02:42;;;;;;;;;;;12.10;91.60;;;;;;5042906;28;20353;-88
2023/12/06 14:05:08;;;;;;;;;;;12.10;91.60;;;;;;5065215;28;19920;-88
2023/12/06 14:07:34;;;;;;;;;;;12.00;91.70;;;;;;5039070;28;19909;-88
2023/12/06 14:09:59;;;;;;;;;;;12.00;91.70;;;;;;5041384;28;19932;-87
2023/12/06 14:12:25;;;;;;;;;;;12.00;91.70;;;;;;5061807;28;19910;-86
2023/12/06 14:14:51;;;;;;;;;;;11.90;91.70;;;;;;5065794;28;19904;-86
2023/12/06 14:17:16;;;;;;;;;;;11.80;91.70;;;;;;5066850;28;19912;-87
2023/12/06 14:19:42;;;;;;;;;;;11.80;91.90;;;;;;5070755;28;19916;-87
2023/12/06 14:22:07;;;;;;;;;;;11.70;92.10;;;;;;5055528;28;19958;-88
2023/12/06 14:24:33;;;;;;;;;;;11.70;92.10;;;;;;5047048;28;20230;-88
2023/12/06 14:26:58;;;;;;;;;;;11.70;92.20;;;;;;5050767;28;19944;-88
2023/12/06 14:29:24;;;;;;;;;;;11.70;92.30;;;;;;5062648;28;19916;-88